Chefornak, AK (99561)

8:08 AM AKDT on July 26, 2016 (GMT -0800)
Kipnuk | | Change Station

Elev 10 ft 59.93 °N, 164.03 °W | Updated 12 minutes ago

Clear
Clear
56 °F
Feels Like 56 °F
N
8
Wind Variable Wind from NNW

Today
High -- | Low -- °F
--% Chance of Precip.
Yesterday
High -- | Low -- °F
Precip. -- in
Pressure 29.75 in
Visibility 10.0 miles
Clouds Clear
Dew Point 54 °F
Humidity 93%
Rainfall 0.00 in
Snow Depth Not available.
6:24 AM 11:40 PM
Waning Gibbous, 53% visible
METAR PAKI 261556Z AUTO 34007KT 10SM CLR 13/12 A2974 RMK AO2 SLP073 T01330122
Pressure 29.75 in
Visibility 10.0 miles
Clouds Clear
Dew Point 54 °F
Humidity 93%
Rainfall 0.00 in
Snow Depth Not available.
6:24 AM 11:40 PM
Waning Gibbous, 53% visible
METAR PAKI 261556Z AUTO 34007KT 10SM CLR 13/12 A2974 RMK AO2 SLP073 T01330122

10-Day Weather Forecast

Almanac

Astronomy

Jul. 26, 2016 Rise Set
Actual Time
Civil Twilight
Nautical Twilight
Astronomical Twilight
Moon
Length of Visible Light
Length of Day
Tomorrow will be .
, % of the Moon is Illuminated

Today's Extremes

State Highs State Lows

Community

WunderPhotos

Upload Photos

1,927,625 photos uploaded!

WunderBlog® & News

Nearby

Air Quality

  Air Quality AQ Index Pollutant
Not available.

Snow Depth

Station Depth Elevation

Earthquake Activity

City Distance Mag. Time & Date
Minimum magnitude displayed is 2.5.

Coastal Water Temperatures

Place Temperature

Stations

Nearby Weather Stations

Station Location Temp. Windchill Dew Point Humidity Wind Precip. Elev Updated Type
                   

Watches & Warnings

There are currently no watches in effect.